createdAt,value
2022-12-26T00:00:56.430Z,34.28
2022-12-26T00:03:42.563Z,32.22
2022-12-26T00:06:30.242Z,31.38
2022-12-26T00:09:17.474Z,31.88
2022-12-26T00:12:03.533Z,36.45
2022-12-26T00:14:50.601Z,36.42
2022-12-26T00:17:36.567Z,41.13
2022-12-26T00:20:22.337Z,47.78
2022-12-26T00:23:08.278Z,52.10
2022-12-26T00:25:54.403Z,64.05
2022-12-26T00:28:40.403Z,58.60
2022-12-26T00:31:29.452Z,68.47
2022-12-26T00:34:15.897Z,49.03
2022-12-26T00:37:01.857Z,44.25
2022-12-26T00:39:47.749Z,40.65
2022-12-26T00:42:33.554Z,45.28
2022-12-26T00:45:19.325Z,35.97
2022-12-26T00:48:05.415Z,43.80
2022-12-26T00:50:51.438Z,46.03
2022-12-26T00:53:37.574Z,44.05
2022-12-26T00:56:23.733Z,46.17
2022-12-26T00:59:09.962Z,48.45
2022-12-26T01:01:55.972Z,42.92
2022-12-26T01:04:42.092Z,39.97
2022-12-26T01:07:27.747Z,43.00
2022-12-26T01:10:13.940Z,45.97
2022-12-26T01:12:59.885Z,45.10
2022-12-26T01:15:53.247Z,43.13
2022-12-26T01:18:39.230Z,40.97
2022-12-26T01:21:24.981Z,43.10
2022-12-26T01:24:10.751Z,36.25
2022-12-26T01:26:56.641Z,40.63
2022-12-26T01:29:42.515Z,43.47
2022-12-26T01:32:28.504Z,42.92
2022-12-26T01:35:14.452Z,41.10
2022-12-26T01:38:00.401Z,44.85
2022-12-26T01:40:46.623Z,48.50
2022-12-26T01:44:00.285Z,46.25
2022-12-26T01:46:46.495Z,46.92
2022-12-26T01:49:37.938Z,61.80
2022-12-26T01:52:30.876Z,56.58
2022-12-26T01:58:14.483Z,49.15
2022-12-26T02:01:02.212Z,52.63
2022-12-26T02:04:06.699Z,41.25
2022-12-26T02:06:52.989Z,43.38
2022-12-26T02:09:39.290Z,41.78
2022-12-26T02:12:38.813Z,32.40
2022-12-26T02:15:25.883Z,44.70
2022-12-26T02:18:11.774Z,31.20
2022-12-26T02:21:17.704Z,38.80
2022-12-26T02:24:15.762Z,33.10
2022-12-26T02:27:05.137Z,33.67
2022-12-26T02:30:08.794Z,34.05
2022-12-26T02:33:10.106Z,30.92
2022-12-26T02:35:58.973Z,36.28
2022-12-26T02:39:42.565Z,37.40
2022-12-26T02:42:54.237Z,26.88
2022-12-26T02:46:06.027Z,25.23
2022-12-26T02:48:51.676Z,22.00
2022-12-26T02:55:23.369Z,17.15
2022-12-26T02:58:36.854Z,21.63
2022-12-26T03:01:54.271Z,21.42
2022-12-26T03:04:59.591Z,28.02
2022-12-26T03:08:04.479Z,22.48
2022-12-26T03:11:10.736Z,23.10
2022-12-26T03:14:13.513Z,21.77
2022-12-26T03:17:22.401Z,25.00
2022-12-26T03:20:24.034Z,23.15
2022-12-26T03:23:12.808Z,23.75
2022-12-26T03:26:19.359Z,23.52
2022-12-26T03:29:30.141Z,16.45
2022-12-26T03:32:16.149Z,21.60
2022-12-26T03:35:02.137Z,22.42
2022-12-26T03:37:53.667Z,34.65
2022-12-26T03:41:15.077Z,29.65
2022-12-26T03:44:53.337Z,28.75
2022-12-26T03:48:02.395Z,22.90
2022-12-26T03:51:10.163Z,22.58
2022-12-26T03:54:26.759Z,18.90
2022-12-26T03:57:37.825Z,21.75
2022-12-26T04:00:42.295Z,20.98
2022-12-26T04:03:48.495Z,17.67
2022-12-26T04:07:04.767Z,19.85
2022-12-26T04:10:29.177Z,18.75
2022-12-26T04:13:41.041Z,27.05
2022-12-26T04:16:59.880Z,16.35
2022-12-26T04:20:21.684Z,21.75
2022-12-26T04:23:57.925Z,26.23
2022-12-26T04:27:04.100Z,15.68
2022-12-26T04:30:08.730Z,17.73
2022-12-26T04:33:16.147Z,17.85
2022-12-26T04:36:26.418Z,23.58
2022-12-26T04:39:33.022Z,14.50
2022-12-26T04:42:38.870Z,26.17
2022-12-26T04:45:26.442Z,19.88
2022-12-26T04:48:31.157Z,15.48
2022-12-26T04:51:17.352Z,16.30
2022-12-26T04:54:03.831Z,18.52
2022-12-26T04:56:50.005Z,20.42
2022-12-26T04:59:35.813Z,16.08
2022-12-26T05:02:40.439Z,14.60
2022-12-26T05:05:45.053Z,15.70
2022-12-26T05:08:59.237Z,13.93
2022-12-26T05:11:47.333Z,11.70
2022-12-26T05:14:36.006Z,14.38
2022-12-26T05:17:40.626Z,14.13
2022-12-26T05:20:49.715Z,22.85
2022-12-26T05:23:54.190Z,18.55
2022-12-26T05:26:58.642Z,13.75
2022-12-26T05:29:44.709Z,23.38
2022-12-26T05:32:49.223Z,17.48
2022-12-26T05:35:35.598Z,18.33
2022-12-26T05:38:21.527Z,14.73
2022-12-26T05:41:07.367Z,13.85
2022-12-26T05:43:53.383Z,28.67
2022-12-26T05:46:39.657Z,16.92
2022-12-26T05:49:25.317Z,21.60
2022-12-26T05:52:11.192Z,16.77
2022-12-26T05:54:57.114Z,31.10
2022-12-26T05:57:43.034Z,18.80
2022-12-26T06:00:30.107Z,25.55
2022-12-26T06:03:16.226Z,23.45
2022-12-26T06:06:02.147Z,18.77
2022-12-26T06:08:49.185Z,18.92
2022-12-26T06:11:35.154Z,21.38
2022-12-26T06:14:21.171Z,18.08
2022-12-26T06:17:06.871Z,36.05
2022-12-26T06:19:52.855Z,78.05
2022-12-26T06:22:38.611Z,26.85
2022-12-26T06:25:24.594Z,96.47
2022-12-26T06:28:10.281Z,86.18
2022-12-26T06:31:11.656Z,15.40
2022-12-26T06:33:58.463Z,19.48
2022-12-26T06:36:44.415Z,22.17
2022-12-26T06:39:30.173Z,28.95
2022-12-26T06:42:16.059Z,20.23
2022-12-26T06:45:01.787Z,16.17
2022-12-26T06:47:47.607Z,20.65
2022-12-26T06:50:36.442Z,29.25
2022-12-26T06:53:26.193Z,31.65
2022-12-26T06:56:14.715Z,29.23
2022-12-26T06:59:02.757Z,23.48
2022-12-26T07:01:49.118Z,54.15
2022-12-26T07:04:35.303Z,26.13
2022-12-26T07:07:21.092Z,25.67
2022-12-26T07:10:18.484Z,23.20
2022-12-26T07:13:13.670Z,27.30
2022-12-26T07:16:00.885Z,26.00
2022-12-26T07:18:46.958Z,22.20
2022-12-26T07:21:39.816Z,20.58
2022-12-26T07:24:26.311Z,43.55
2022-12-26T07:27:12.171Z,65.50
2022-12-26T07:29:58.122Z,62.83
2022-12-26T07:32:46.377Z,48.38
2022-12-26T07:35:32.377Z,38.92
2022-12-26T07:38:18.285Z,40.13
2022-12-26T07:41:22.513Z,36.13
2022-12-26T07:44:10.359Z,40.88
2022-12-26T07:46:56.950Z,30.45
2022-12-26T07:49:42.908Z,29.85
2022-12-26T07:52:28.712Z,39.00
2022-12-26T07:55:14.784Z,54.35
2022-12-26T07:58:00.923Z,59.25
2022-12-26T08:00:46.773Z,68.22
2022-12-26T08:03:33.631Z,89.55
2022-12-26T08:06:20.058Z,110.35
2022-12-26T08:09:06.147Z,124.10
2022-12-26T08:11:52.227Z,135.98
2022-12-26T08:14:38.309Z,159.10
2022-12-26T08:17:24.263Z,139.75
2022-12-26T08:20:10.416Z,132.70
2022-12-26T08:25:48.308Z,127.35
2022-12-26T08:28:34.790Z,123.60
2022-12-26T08:31:56.725Z,119.82
2022-12-26T08:34:42.587Z,109.15
2022-12-26T08:37:28.338Z,91.88
2022-12-26T08:40:15.515Z,80.57
2022-12-26T08:43:22.143Z,91.50
2022-12-26T08:46:12.134Z,89.78
2022-12-26T08:48:57.916Z,87.72
2022-12-26T08:51:43.830Z,69.05
2022-12-26T08:54:29.828Z,66.30
2022-12-26T08:57:15.932Z,62.97
2022-12-26T09:00:01.873Z,64.88
2022-12-26T09:02:48.225Z,75.47
2022-12-26T09:05:33.877Z,69.63
2022-12-26T09:08:19.762Z,69.88
2022-12-26T09:11:07.755Z,73.57
2022-12-26T09:13:55.121Z,74.38
2022-12-26T09:16:49.769Z,84.53
2022-12-26T09:19:36.911Z,90.75
2022-12-26T09:22:41.322Z,115.45
2022-12-26T09:25:27.756Z,117.93
2022-12-26T09:28:14.027Z,137.43
2022-12-26T09:31:01.656Z,126.97
2022-12-26T09:33:47.928Z,136.85
2022-12-26T09:36:38.180Z,144.18
2022-12-26T09:39:24.295Z,145.18
2022-12-26T09:42:31.804Z,135.90
2022-12-26T09:45:20.150Z,139.55
2022-12-26T09:48:12.391Z,138.43
2022-12-26T09:50:58.499Z,103.85
2022-12-26T09:53:47.728Z,144.25
2022-12-26T09:57:01.771Z,136.52
2022-12-26T09:59:51.427Z,148.68
2022-12-26T10:02:37.403Z,136.20
2022-12-26T10:05:51.021Z,118.53
2022-12-26T10:09:01.790Z,126.35
2022-12-26T10:12:04.046Z,137.75
2022-12-26T10:15:27.540Z,124.70
2022-12-26T10:18:23.035Z,145.52
2022-12-26T10:21:15.030Z,149.27
2022-12-26T10:24:05.375Z,171.80
2022-12-26T10:27:02.456Z,176.35
2022-12-26T10:29:58.848Z,144.40
2022-12-26T10:32:48.513Z,167.43
2022-12-26T10:35:45.664Z,177.68
2022-12-26T10:38:41.001Z,166.85
2022-12-26T10:41:36.017Z,163.88
2022-12-26T10:44:27.384Z,157.38
2022-12-26T10:47:16.944Z,144.82
2022-12-26T10:50:03.365Z,171.95
2022-12-26T10:52:49.767Z,175.80
2022-12-26T10:55:35.840Z,152.05
2022-12-26T10:58:26.425Z,128.23
2022-12-26T11:01:36.454Z,131.38
2022-12-26T11:05:02.223Z,126.35
2022-12-26T11:07:36.244Z,126.35
2022-12-26T11:10:25.167Z,116.67
2022-12-26T11:13:19.116Z,106.35
2022-12-26T11:16:05.718Z,108.30
2022-12-26T11:18:53.653Z,111.20
2022-12-26T11:21:39.527Z,96.25
2022-12-26T11:24:25.242Z,94.97
2022-12-26T11:27:20.481Z,86.28
2022-12-26T11:30:12.604Z,92.50
2022-12-26T11:33:18.540Z,104.38
2022-12-26T11:36:07.722Z,99.72
2022-12-26T11:39:24.016Z,98.05
2022-12-26T11:42:20.114Z,107.55
2022-12-26T11:45:11.296Z,109.35
2022-12-26T11:48:00.034Z,107.32
2022-12-26T11:50:46.609Z,99.55
2022-12-26T11:53:34.922Z,106.35
2022-12-26T11:56:26.274Z,104.55
2022-12-26T11:59:23.708Z,104.72
2022-12-26T12:02:23.153Z,104.38
2022-12-26T12:05:29.116Z,103.53
2022-12-26T12:08:16.414Z,105.80
2022-12-26T12:11:21.121Z,121.00
2022-12-26T12:14:30.670Z,127.60
2022-12-26T12:17:38.571Z,131.65
2022-12-26T12:20:51.821Z,198.35
2022-12-26T12:24:15.122Z,136.60
2022-12-26T12:27:09.556Z,197.68
2022-12-26T12:30:13.782Z,192.20
2022-12-26T12:33:11.761Z,189.07
2022-12-26T12:36:10.153Z,180.13
2022-12-26T12:39:12.917Z,172.20
2022-12-26T12:42:29.887Z,180.15
2022-12-26T12:45:27.153Z,192.43
2022-12-26T12:48:38.610Z,189.75
2022-12-26T12:51:37.393Z,199.95
2022-12-26T12:54:34.462Z,195.55
2022-12-26T12:57:58.014Z,208.25
2022-12-26T13:03:45.963Z,192.30
2022-12-26T13:06:42.542Z,165.60
2022-12-26T13:09:50.879Z,163.00
2022-12-26T13:12:39.306Z,160.75
2022-12-26T13:15:32.375Z,165.43
2022-12-26T13:18:24.224Z,141.85
2022-12-26T13:21:12.460Z,143.60
2022-12-26T13:24:24.650Z,131.60
2022-12-26T13:27:21.727Z,119.57
2022-12-26T13:30:16.311Z,92.15
2022-12-26T13:33:03.954Z,90.13
2022-12-26T13:35:52.801Z,89.95
2022-12-26T13:38:56.878Z,90.80
2022-12-26T13:42:11.124Z,86.85
2022-12-26T13:45:35.308Z,90.15
2022-12-26T13:48:21.247Z,97.53
2022-12-26T13:51:43.846Z,93.57
2022-12-26T13:54:30.499Z,95.85
2022-12-26T13:57:34.468Z,101.18
2022-12-26T14:00:25.317Z,97.93
2022-12-26T14:03:38.383Z,105.13
2022-12-26T14:09:31.210Z,104.68
2022-12-26T14:12:49.141Z,109.60
2022-12-26T14:15:47.267Z,116.00
2022-12-26T14:18:43.061Z,113.47
2022-12-26T14:21:57.571Z,116.93
2022-12-26T14:25:08.415Z,122.70
2022-12-26T14:28:04.794Z,123.90
2022-12-26T14:30:54.519Z,131.55
2022-12-26T14:34:13.100Z,133.60
2022-12-26T14:37:21.161Z,123.00
2022-12-26T14:40:30.324Z,125.63
2022-12-26T14:43:34.530Z,132.23
2022-12-26T14:46:35.467Z,147.73
2022-12-26T14:49:35.395Z,149.05
2022-12-26T14:52:24.761Z,148.30
2022-12-26T14:55:40.193Z,171.63
2022-12-26T14:58:36.421Z,162.65
2022-12-26T15:01:22.376Z,176.32
2022-12-26T15:04:41.514Z,170.68
2022-12-26T15:07:58.288Z,173.65
2022-12-26T15:11:08.222Z,168.48
2022-12-26T15:14:22.244Z,174.20
2022-12-26T15:17:08.692Z,159.07
2022-12-26T15:19:54.841Z,158.68
2022-12-26T15:22:59.274Z,156.63
2022-12-26T15:26:10.032Z,163.45
2022-12-26T15:29:17.200Z,156.27
2022-12-26T15:32:14.272Z,170.88
2022-12-26T15:35:34.930Z,160.02
2022-12-26T15:38:41.681Z,161.27
2022-12-26T15:41:42.614Z,161.70
2022-12-26T15:44:35.225Z,164.93
2022-12-26T15:47:54.532Z,164.38
2022-12-26T15:51:22.515Z,169.77
2022-12-26T15:54:44.046Z,183.32
2022-12-26T15:57:41.373Z,168.48
2022-12-26T16:00:31.179Z,275.77
2022-12-26T16:03:29.570Z,337.85
2022-12-26T16:06:43.441Z,281.98
2022-12-26T16:09:47.820Z,299.98
2022-12-26T16:12:35.853Z,339.98
2022-12-26T16:15:25.152Z,304.48
2022-12-26T16:18:20.804Z,322.08
2022-12-26T16:21:25.396Z,306.38
2022-12-26T16:24:13.011Z,337.02
2022-12-26T16:27:02.071Z,334.75
2022-12-26T16:29:51.434Z,305.52
2022-12-26T16:32:38.970Z,315.45
2022-12-26T16:35:39.404Z,343.90
2022-12-26T16:38:28.185Z,356.27
2022-12-26T16:41:23.327Z,341.48
2022-12-26T16:44:31.179Z,331.30
2022-12-26T16:47:17.219Z,328.83
2022-12-26T16:50:05.233Z,324.73
2022-12-26T16:53:19.972Z,321.55
2022-12-26T16:56:29.416Z,328.80
2022-12-26T16:59:18.501Z,297.17
2022-12-26T17:02:04.782Z,313.15
2022-12-26T17:04:58.256Z,304.85
2022-12-26T17:07:45.791Z,306.38
2022-12-26T17:10:34.981Z,327.80
2022-12-26T17:13:24.608Z,318.90
2022-12-26T17:16:10.908Z,317.55
2022-12-26T17:19:08.944Z,314.00
2022-12-26T17:22:19.086Z,325.90
2022-12-26T17:25:17.146Z,305.45
2022-12-26T17:28:09.763Z,305.58
2022-12-26T17:30:56.012Z,263.80
2022-12-26T17:33:47.664Z,254.55
2022-12-26T17:39:40.312Z,252.43
2022-12-26T17:42:26.353Z,253.63
2022-12-26T17:45:17.991Z,243.00
2022-12-26T17:48:04.204Z,241.95
2022-12-26T17:50:55.287Z,227.07
2022-12-26T17:53:42.171Z,251.82
2022-12-26T17:56:28.168Z,221.43
2022-12-26T17:59:14.448Z,213.55
2022-12-26T18:02:00.558Z,184.32
2022-12-26T18:04:47.471Z,172.85
2022-12-26T18:07:33.391Z,173.18
2022-12-26T18:10:22.701Z,173.60
2022-12-26T18:13:16.290Z,182.88
2022-12-26T18:16:02.553Z,174.35
2022-12-26T18:18:48.736Z,163.43
2022-12-26T18:21:34.528Z,148.65
2022-12-26T18:24:20.655Z,139.43
2022-12-26T18:27:07.029Z,144.07
2022-12-26T18:29:53.336Z,152.68
2022-12-26T18:32:44.413Z,157.75
2022-12-26T18:35:30.805Z,143.43
2022-12-26T18:38:18.930Z,136.45
2022-12-26T18:41:05.200Z,158.23
2022-12-26T18:43:51.346Z,185.40
2022-12-26T18:46:37.627Z,171.98
2022-12-26T18:49:23.449Z,173.30
2022-12-26T18:52:09.919Z,159.40
2022-12-26T18:54:55.723Z,155.02
2022-12-26T18:57:41.786Z,158.20
2022-12-26T19:00:27.826Z,155.55
2022-12-26T19:03:13.830Z,151.88
2022-12-26T19:05:59.678Z,154.93
2022-12-26T19:08:45.633Z,155.25
2022-12-26T19:11:31.466Z,162.98
2022-12-26T19:14:20.530Z,155.50
2022-12-26T19:17:06.516Z,146.40
2022-12-26T19:19:52.608Z,157.65
2022-12-26T19:22:38.564Z,160.23
2022-12-26T19:25:25.762Z,165.57
2022-12-26T19:28:11.809Z,163.65
2022-12-26T19:30:57.714Z,176.68
2022-12-26T19:33:43.624Z,203.65
2022-12-26T19:36:29.920Z,207.70
2022-12-26T19:39:15.890Z,207.50
2022-12-26T19:42:01.729Z,200.10
2022-12-26T19:44:48.135Z,196.43
2022-12-26T19:47:34.830Z,200.93
2022-12-26T19:50:20.520Z,186.15
2022-12-26T19:53:06.307Z,184.52
2022-12-26T19:55:57.548Z,187.32
2022-12-26T19:58:45.130Z,176.95
2022-12-26T20:01:32.042Z,185.68
2022-12-26T20:04:18.447Z,174.85
2022-12-26T20:07:05.407Z,159.93
2022-12-26T20:09:51.390Z,155.73
2022-12-26T20:12:37.437Z,135.48
2022-12-26T20:15:23.271Z,139.95
2022-12-26T20:18:13.594Z,136.30
2022-12-26T20:21:00.888Z,136.35
2022-12-26T20:23:47.118Z,144.77
2022-12-26T20:26:33.541Z,159.55
2022-12-26T20:29:19.885Z,145.32
2022-12-26T20:32:05.774Z,146.45
2022-12-26T20:34:52.070Z,161.98
2022-12-26T20:37:38.041Z,160.20
2022-12-26T20:40:25.479Z,165.48
2022-12-26T20:43:11.727Z,156.63
2022-12-26T20:46:00.776Z,156.35
2022-12-26T20:48:50.448Z,141.27
2022-12-26T20:51:38.625Z,148.30
2022-12-26T20:54:24.940Z,136.13
2022-12-26T20:57:10.967Z,148.38
2022-12-26T20:59:57.016Z,143.85
2022-12-26T21:02:43.012Z,145.65
2022-12-26T21:05:29.257Z,145.10
2022-12-26T21:08:14.978Z,136.60
2022-12-26T21:11:11.577Z,165.30
2022-12-26T21:14:00.420Z,155.40
2022-12-26T21:16:58.256Z,149.80
2022-12-26T21:19:45.180Z,164.77
2022-12-26T21:22:31.204Z,135.13
2022-12-26T21:25:17.148Z,127.32
2022-12-26T21:28:03.636Z,127.03
2022-12-26T21:30:49.792Z,125.38
2022-12-26T21:33:42.206Z,120.22
2022-12-26T21:36:30.556Z,125.90
2022-12-26T21:39:16.657Z,123.43
2022-12-26T21:42:02.642Z,124.60
2022-12-26T21:44:48.625Z,112.20
2022-12-26T21:47:34.542Z,112.82
2022-12-26T21:50:20.625Z,110.75
2022-12-26T21:53:07.332Z,166.50
2022-12-26T21:55:53.340Z,129.80
2022-12-26T21:58:58.365Z,117.60
2022-12-26T22:01:44.490Z,105.82
2022-12-26T22:04:30.347Z,96.57
2022-12-26T22:07:16.035Z,106.22
2022-12-26T22:10:03.048Z,106.60
2022-12-26T22:12:57.725Z,107.20
2022-12-26T22:16:03.891Z,106.40
2022-12-26T22:18:49.964Z,105.90
2022-12-26T22:21:35.984Z,99.03
2022-12-26T22:24:22.508Z,100.07
2022-12-26T22:27:08.287Z,108.50
2022-12-26T22:29:54.154Z,107.57
2022-12-26T22:32:40.083Z,102.25
2022-12-26T22:35:25.930Z,123.53
2022-12-26T22:38:11.866Z,116.15
2022-12-26T22:40:58.891Z,104.93
2022-12-26T22:43:45.382Z,112.05
2022-12-26T22:46:31.687Z,103.65
2022-12-26T22:49:17.409Z,110.70
2022-12-26T22:52:03.414Z,111.43
2022-12-26T22:54:49.378Z,116.53
2022-12-26T22:57:35.186Z,109.28
2022-12-26T23:00:21.118Z,123.50
2022-12-26T23:03:07.348Z,121.28
2022-12-26T23:05:54.383Z,119.97
2022-12-26T23:08:40.449Z,107.53
2022-12-26T23:11:34.473Z,102.53
2022-12-26T23:14:21.354Z,107.88
2022-12-26T23:17:10.791Z,99.78
2022-12-26T23:20:15.485Z,99.57
2022-12-26T23:23:01.772Z,93.85
2022-12-26T23:25:48.132Z,87.38
2022-12-26T23:28:52.577Z,89.82
2022-12-26T23:31:38.690Z,90.72
2022-12-26T23:34:24.503Z,106.32
2022-12-26T23:37:10.235Z,105.45
2022-12-26T23:39:56.125Z,104.32
2022-12-26T23:42:42.060Z,104.88
2022-12-26T23:45:27.805Z,104.35
2022-12-26T23:48:13.985Z,104.15
2022-12-26T23:51:04.989Z,107.70
2022-12-26T23:53:50.813Z,132.77
2022-12-26T23:56:37.498Z,145.63
2022-12-26T23:59:23.789Z,133.38
